createdAt,value
2017-10-03T09:21:16.695Z,50.39
2017-10-03T09:23:45.898Z,49.54
2017-10-03T09:26:15.103Z,50.68
2017-10-03T09:28:44.283Z,50.37
2017-10-03T09:31:13.478Z,49.21
2017-10-03T09:33:42.668Z,49.25
2017-10-03T09:36:11.870Z,48.10
2017-10-03T09:38:41.061Z,48.16
2017-10-03T09:41:10.336Z,48.05
2017-10-03T09:43:39.539Z,48.34
2017-10-03T09:46:08.830Z,47.98
2017-10-03T09:48:38.015Z,48.46
2017-10-03T09:51:07.235Z,47.38
2017-10-03T09:53:36.443Z,48.07
2017-10-03T09:56:05.722Z,48.14
2017-10-03T09:58:34.901Z,47.36
2017-10-03T10:01:04.118Z,47.73
2017-10-03T10:03:33.299Z,47.61
2017-10-03T10:06:02.494Z,46.46
2017-10-03T10:08:31.710Z,47.95
2017-10-03T10:11:01.014Z,47.82
2017-10-03T10:13:30.205Z,47.80
2017-10-03T10:15:59.411Z,46.49
2017-10-03T10:18:28.701Z,46.77
2017-10-03T10:20:57.886Z,47.75
2017-10-03T10:23:27.082Z,47.97
2017-10-03T10:25:56.258Z,48.19
2017-10-03T10:28:25.449Z,48.54
2017-10-03T10:30:54.711Z,48.99
2017-10-03T10:33:23.902Z,49.25
2017-10-03T10:35:53.076Z,49.32
2017-10-03T10:38:22.274Z,49.22
2017-10-03T10:40:51.458Z,49.30
2017-10-03T10:43:20.668Z,49.19
2017-10-03T10:45:49.871Z,49.33
2017-10-03T10:48:19.078Z,49.42
2017-10-03T10:50:48.374Z,49.21
2017-10-03T10:53:17.554Z,48.84
2017-10-03T10:55:46.774Z,50.21
2017-10-03T10:58:15.950Z,49.93
2017-10-03T11:00:45.221Z,48.46
2017-10-03T11:03:14.389Z,48.36
2017-10-03T11:05:43.589Z,48.69
2017-10-03T11:08:12.830Z,46.84
2017-10-03T11:10:41.981Z,47.43
2017-10-03T11:13:11.182Z,47.17
2017-10-03T11:15:40.358Z,47.74
2017-10-03T11:18:09.554Z,47.42
2017-10-03T11:20:38.725Z,48.08
2017-10-03T11:23:13.983Z,46.78
2017-10-03T11:25:43.214Z,46.27
2017-10-03T11:28:12.410Z,46.49
2017-10-03T11:30:41.586Z,46.08
2017-10-03T11:33:10.870Z,46.76
2017-10-03T11:35:40.054Z,47.10
2017-10-03T11:38:09.246Z,46.68
2017-10-03T11:40:38.442Z,47.10
2017-10-03T11:43:07.623Z,47.06
2017-10-03T11:45:36.817Z,46.49
2017-10-03T11:48:06.057Z,46.30
2017-10-03T11:50:35.354Z,46.12
2017-10-03T11:53:04.530Z,46.49
2017-10-03T11:55:33.749Z,47.86
2017-10-03T11:58:02.923Z,46.37
2017-10-03T12:00:32.122Z,46.29
2017-10-03T12:03:01.342Z,46.47
2017-10-03T12:05:30.522Z,46.61
2017-10-03T12:07:59.746Z,50.04
2017-10-03T12:10:28.969Z,46.88
2017-10-03T12:12:58.238Z,47.04
2017-10-03T12:15:27.410Z,47.43
2017-10-03T12:17:56.638Z,47.49
2017-10-03T12:20:25.825Z,47.08
2017-10-03T12:22:55.006Z,46.25
2017-10-03T12:25:24.202Z,47.75
2017-10-03T12:27:54.086Z,46.55
2017-10-03T12:30:23.332Z,47.09
2017-10-03T12:32:52.530Z,46.38
2017-10-03T12:35:21.729Z,46.56
2017-10-03T12:37:50.937Z,46.33
2017-10-03T12:40:20.127Z,47.55
2017-10-03T12:42:49.320Z,46.72
2017-10-03T12:45:18.514Z,46.90
2017-10-03T12:47:47.690Z,46.45
2017-10-03T12:50:16.914Z,46.41
2017-10-03T12:52:46.090Z,47.36
2017-10-03T12:55:15.313Z,47.41
2017-10-03T12:57:44.490Z,47.50
2017-10-03T13:00:45.755Z,48.39
